sensor_id;sensor_type;location;lat;lon;timestamp;pressure;altitude;pressure_sealevel;temperature;humidity
7376;BME280;3728;42.266;24.944;2023-04-09T00:01:25;99952.13;;;11.42;76.90
7376;BME280;3728;42.266;24.944;2023-04-09T00:03:52;99965.97;;;11.07;78.70
7376;BME280;3728;42.266;24.944;2023-04-09T00:06:19;99957.72;;;10.86;80.71
7376;BME280;3728;42.266;24.944;2023-04-09T00:08:46;99961.50;;;11.08;79.49
7376;BME280;3728;42.266;24.944;2023-04-09T00:11:13;99954.13;;;11.23;79.09
7376;BME280;3728;42.266;24.944;2023-04-09T00:13:40;99961.50;;;10.80;79.86
7376;BME280;3728;42.266;24.944;2023-04-09T00:16:07;99959.84;;;10.71;81.71
7376;BME280;3728;42.266;24.944;2023-04-09T00:18:34;99963.47;;;10.43;82.61
7376;BME280;3728;42.266;24.944;2023-04-09T00:21:01;99962.84;;;10.32;83.79
7376;BME280;3728;42.266;24.944;2023-04-09T00:23:28;99966.13;;;10.24;84.70
7376;BME280;3728;42.266;24.944;2023-04-09T00:25:56;99964.81;;;10.40;84.37
7376;BME280;3728;42.266;24.944;2023-04-09T00:28:23;99971.66;;;10.55;83.45
7376;BME280;3728;42.266;24.944;2023-04-09T00:30:50;99973.13;;;10.28;84.17
7376;BME280;3728;42.266;24.944;2023-04-09T00:33:17;99976.31;;;10.07;85.89
7376;BME280;3728;42.266;24.944;2023-04-09T00:35:44;99975.81;;;10.23;86.41
7376;BME280;3728;42.266;24.944;2023-04-09T00:38:11;99967.34;;;10.13;85.86
7376;BME280;3728;42.266;24.944;2023-04-09T00:40:38;99973.19;;;10.56;84.73
7376;BME280;3728;42.266;24.944;2023-04-09T00:43:06;99974.81;;;10.38;84.52
7376;BME280;3728;42.266;24.944;2023-04-09T00:45:34;99968.59;;;10.15;87.05
7376;BME280;3728;42.266;24.944;2023-04-09T00:48:02;99971.94;;;10.21;86.92
7376;BME280;3728;42.266;24.944;2023-04-09T00:50:29;99972.97;;;10.01;87.72
7376;BME280;3728;42.266;24.944;2023-04-09T00:52:56;99968.34;;;10.17;88.63
7376;BME280;3728;42.266;24.944;2023-04-09T00:55:24;99966.31;;;10.27;86.88
7376;BME280;3728;42.266;24.944;2023-04-09T00:57:51;99966.06;;;9.92;88.29
7376;BME280;3728;42.266;24.944;2023-04-09T01:00:18;99971.09;;;9.88;89.62
7376;BME280;3728;42.266;24.944;2023-04-09T01:02:45;99973.97;;;10.05;88.84
7376;BME280;3728;42.266;24.944;2023-04-09T01:05:13;99972.50;;;10.18;88.34
7376;BME280;3728;42.266;24.944;2023-04-09T01:08:04;99975.59;;;10.20;88.61
7376;BME280;3728;42.266;24.944;2023-04-09T01:11:05;99977.84;;;10.59;86.48
7376;BME280;3728;42.266;24.944;2023-04-09T01:13:48;99980.22;;;10.74;84.27
7376;BME280;3728;42.266;24.944;2023-04-09T01:16:56;99983.25;;;10.49;85.44
7376;BME280;3728;42.266;24.944;2023-04-09T01:22:41;99980.03;;;10.38;86.32
7376;BME280;3728;42.266;24.944;2023-04-09T01:26:10;99970.72;;;10.13;87.44
7376;BME280;3728;42.266;24.944;2023-04-09T01:28:53;99975.59;;;10.20;87.95
7376;BME280;3728;42.266;24.944;2023-04-09T01:31:25;99975.25;;;10.26;88.01
7376;BME280;3728;42.266;24.944;2023-04-09T01:33:56;99978.63;;;10.08;88.03
7376;BME280;3728;42.266;24.944;2023-04-09T01:36:24;99982.81;;;10.28;86.60
7376;BME280;3728;42.266;24.944;2023-04-09T01:38:54;99978.63;;;10.46;84.50
7376;BME280;3728;42.266;24.944;2023-04-09T01:41:22;99980.56;;;10.54;84.65
7376;BME280;3728;42.266;24.944;2023-04-09T01:43:52;99970.44;;;10.34;85.53
7376;BME280;3728;42.266;24.944;2023-04-09T01:46:20;99981.53;;;10.25;86.09
7376;BME280;3728;42.266;24.944;2023-04-09T01:48:48;99985.13;;;10.29;85.70
7376;BME280;3728;42.266;24.944;2023-04-09T01:51:16;99982.31;;;10.07;86.59
7376;BME280;3728;42.266;24.944;2023-04-09T01:53:43;99984.13;;;10.12;86.01
7376;BME280;3728;42.266;24.944;2023-04-09T01:56:10;99983.09;;;10.26;85.48
7376;BME280;3728;42.266;24.944;2023-04-09T01:58:38;99984.03;;;9.98;86.52
7376;BME280;3728;42.266;24.944;2023-04-09T02:01:16;99987.13;;;9.63;88.55
7376;BME280;3728;42.266;24.944;2023-04-09T02:03:53;99991.06;;;9.42;89.98
7376;BME280;3728;42.266;24.944;2023-04-09T02:09:07;99985.50;;;9.25;94.54
7376;BME280;3728;42.266;24.944;2023-04-09T02:11:40;99976.72;;;9.16;95.04
7376;BME280;3728;42.266;24.944;2023-04-09T02:14:10;99982.94;;;9.20;93.86
7376;BME280;3728;42.266;24.944;2023-04-09T02:16:39;99986.91;;;9.17;94.32
7376;BME280;3728;42.266;24.944;2023-04-09T02:19:07;99983.78;;;9.39;93.39
7376;BME280;3728;42.266;24.944;2023-04-09T02:21:34;99991.44;;;10.10;88.76
7376;BME280;3728;42.266;24.944;2023-04-09T02:24:01;99992.50;;;9.90;87.66
7376;BME280;3728;42.266;24.944;2023-04-09T02:26:29;100000.97;;;9.82;87.91
7376;BME280;3728;42.266;24.944;2023-04-09T02:28:57;99995.84;;;9.35;90.34
7376;BME280;3728;42.266;24.944;2023-04-09T02:31:24;99999.41;;;8.97;93.45
7376;BME280;3728;42.266;24.944;2023-04-09T02:33:51;99992.28;;;8.78;96.21
7376;BME280;3728;42.266;24.944;2023-04-09T02:36:19;99998.03;;;8.75;96.53
7376;BME280;3728;42.266;24.944;2023-04-09T02:38:46;100008.28;;;8.95;96.55
7376;BME280;3728;42.266;24.944;2023-04-09T02:41:13;100005.47;;;9.16;93.77
7376;BME280;3728;42.266;24.944;2023-04-09T02:43:40;100011.16;;;9.65;92.11
7376;BME280;3728;42.266;24.944;2023-04-09T02:46:07;100005.22;;;9.36;91.64
7376;BME280;3728;42.266;24.944;2023-04-09T02:48:35;100011.53;;;9.11;91.94
7376;BME280;3728;42.266;24.944;2023-04-09T02:51:04;100007.78;;;9.17;93.56
7376;BME280;3728;42.266;24.944;2023-04-09T02:53:31;100006.06;;;9.08;93.99
7376;BME280;3728;42.266;24.944;2023-04-09T02:55:58;100006.75;;;8.94;94.70
7376;BME280;3728;42.266;24.944;2023-04-09T02:58:25;100007.56;;;8.90;95.36
7376;BME280;3728;42.266;24.944;2023-04-09T03:00:53;100016.03;;;9.06;94.75
7376;BME280;3728;42.266;24.944;2023-04-09T03:03:20;100010.97;;;9.14;94.47
7376;BME280;3728;42.266;24.944;2023-04-09T03:05:47;100009.97;;;9.34;94.14
7376;BME280;3728;42.266;24.944;2023-04-09T03:08:14;100012.06;;;9.55;92.41
7376;BME280;3728;42.266;24.944;2023-04-09T03:10:41;100015.19;;;9.57;91.24
7376;BME280;3728;42.266;24.944;2023-04-09T03:13:11;100010.63;;;9.44;91.37
7376;BME280;3728;42.266;24.944;2023-04-09T03:15:39;100024.31;;;9.36;94.00
7376;BME280;3728;42.266;24.944;2023-04-09T03:18:07;100016.94;;;9.62;98.54
7376;BME280;3728;42.266;24.944;2023-04-09T03:20:39;100021.78;;;9.50;95.29
7376;BME280;3728;42.266;24.944;2023-04-09T03:23:10;100024.31;;;9.36;98.95
7376;BME280;3728;42.266;24.944;2023-04-09T03:25:42;100021.16;;;9.39;98.62
7376;BME280;3728;42.266;24.944;2023-04-09T03:28:14;100016.06;;;9.48;95.53
7376;BME280;3728;42.266;24.944;2023-04-09T03:30:48;100016.31;;;9.51;97.18
7376;BME280;3728;42.266;24.944;2023-04-09T03:33:15;100018.06;;;9.56;93.95
7376;BME280;3728;42.266;24.944;2023-04-09T03:35:48;100018.16;;;9.27;96.37
7376;BME280;3728;42.266;24.944;2023-04-09T03:38:21;100021.19;;;9.11;97.79
7376;BME280;3728;42.266;24.944;2023-04-09T03:40:49;100019.09;;;9.13;97.67
7376;BME280;3728;42.266;24.944;2023-04-09T03:43:16;100018.53;;;8.92;99.96
7376;BME280;3728;42.266;24.944;2023-04-09T03:45:48;100015.03;;;9.02;99.96
7376;BME280;3728;42.266;24.944;2023-04-09T03:48:21;100018.72;;;8.95;100.00
7376;BME280;3728;42.266;24.944;2023-04-09T03:50:49;100021.38;;;8.90;100.00
7376;BME280;3728;42.266;24.944;2023-04-09T03:53:23;100019.50;;;8.96;100.00
7376;BME280;3728;42.266;24.944;2023-04-09T03:55:56;100017.81;;;8.81;100.00
7376;BME280;3728;42.266;24.944;2023-04-09T03:58:25;100023.88;;;8.77;100.00
7376;BME280;3728;42.266;24.944;2023-04-09T04:00:52;100030.78;;;8.91;100.00
7376;BME280;3728;42.266;24.944;2023-04-09T04:03:35;100033.53;;;9.29;100.00
7376;BME280;3728;42.266;24.944;2023-04-09T04:06:28;100036.25;;;9.42;99.24
7376;BME280;3728;42.266;24.944;2023-04-09T04:09:15;100044.38;;;9.41;100.00
7376;BME280;3728;42.266;24.944;2023-04-09T04:11:54;100047.22;;;9.44;100.00
7376;BME280;3728;42.266;24.944;2023-04-09T04:14:25;100050.25;;;9.75;99.03
7376;BME280;3728;42.266;24.944;2023-04-09T04:16:59;100044.69;;;9.39;100.00
7376;BME280;3728;42.266;24.944;2023-04-09T04:19:29;100049.09;;;9.62;100.00
7376;BME280;3728;42.266;24.944;2023-04-09T04:21:56;100053.88;;;9.98;100.00
7376;BME280;3728;42.266;24.944;2023-04-09T04:24:23;100055.59;;;10.07;97.38
7376;BME280;3728;42.266;24.944;2023-04-09T04:26:51;100053.53;;;9.86;98.82
7376;BME280;3728;42.266;24.944;2023-04-09T04:29:19;100061.38;;;10.04;100.00
7376;BME280;3728;42.266;24.944;2023-04-09T04:31:53;100063.66;;;10.29;100.00
7376;BME280;3728;42.266;24.944;2023-04-09T04:34:23;100068.13;;;10.80;91.45
7376;BME280;3728;42.266;24.944;2023-04-09T04:36:59;100067.75;;;10.54;90.17
7376;BME280;3728;42.266;24.944;2023-04-09T04:39:30;100068.00;;;10.20;96.20
7376;BME280;3728;42.266;24.944;2023-04-09T04:42:02;100060.59;;;10.04;97.44
7376;BME280;3728;42.266;24.944;2023-04-09T04:44:29;100067.06;;;10.11;97.82
7376;BME280;3728;42.266;24.944;2023-04-09T04:47:16;100070.88;;;10.38;96.97
7376;BME280;3728;42.266;24.944;2023-04-09T04:49:44;100071.41;;;10.72;92.89
7376;BME280;3728;42.266;24.944;2023-04-09T04:52:12;100069.84;;;10.71;92.63
7376;BME280;3728;42.266;24.944;2023-04-09T04:54:43;100069.28;;;10.74;92.35
7376;BME280;3728;42.266;24.944;2023-04-09T04:57:17;100070.59;;;10.90;91.83
7376;BME280;3728;42.266;24.944;2023-04-09T04:59:44;100072.63;;;10.93;91.37
7376;BME280;3728;42.266;24.944;2023-04-09T05:02:12;100071.66;;;10.89;91.41
7376;BME280;3728;42.266;24.944;2023-04-09T05:05:11;100071.72;;;10.84;91.15
7376;BME280;3728;42.266;24.944;2023-04-09T05:07:45;100074.72;;;10.77;90.63
7376;BME280;3728;42.266;24.944;2023-04-09T05:10:13;100080.81;;;11.05;90.72
7376;BME280;3728;42.266;24.944;2023-04-09T05:12:41;100079.66;;;11.11;90.93
7376;BME280;3728;42.266;24.944;2023-04-09T05:15:12;100081.19;;;10.98;90.42
7376;BME280;3728;42.266;24.944;2023-04-09T05:17:42;100075.75;;;10.95;90.10
7376;BME280;3728;42.266;24.944;2023-04-09T05:20:12;100077.63;;;10.76;89.56
7376;BME280;3728;42.266;24.944;2023-04-09T05:23:03;100075.81;;;10.58;90.73
7376;BME280;3728;42.266;24.944;2023-04-09T05:25:36;100078.72;;;10.56;91.86
7376;BME280;3728;42.266;24.944;2023-04-09T05:28:07;100081.84;;;10.58;92.25
7376;BME280;3728;42.266;24.944;2023-04-09T05:30:37;100074.94;;;10.81;91.16
7376;BME280;3728;42.266;24.944;2023-04-09T05:33:08;100080.25;;;11.22;89.31
7376;BME280;3728;42.266;24.944;2023-04-09T05:35:38;100081.91;;;11.31;87.58
7376;BME280;3728;42.266;24.944;2023-04-09T05:38:05;100088.31;;;11.52;86.39
7376;BME280;3728;42.266;24.944;2023-04-09T05:40:33;100094.53;;;11.56;85.58
7376;BME280;3728;42.266;24.944;2023-04-09T05:43:04;100081.66;;;11.74;83.62
7376;BME280;3728;42.266;24.944;2023-04-09T05:45:37;100086.69;;;11.84;82.12
7376;BME280;3728;42.266;24.944;2023-04-09T05:48:08;100084.44;;;11.91;82.91
7376;BME280;3728;42.266;24.944;2023-04-09T05:50:37;100084.56;;;11.86;83.11
7376;BME280;3728;42.266;24.944;2023-04-09T05:53:20;100080.19;;;11.68;83.39
7376;BME280;3728;42.266;24.944;2023-04-09T05:55:49;100077.53;;;11.95;82.58
7376;BME280;3728;42.266;24.944;2023-04-09T05:58:22;100089.97;;;12.03;82.34
7376;BME280;3728;42.266;24.944;2023-04-09T06:00:49;100096.03;;;12.25;80.82
7376;BME280;3728;42.266;24.944;2023-04-09T06:03:18;100093.75;;;12.10;80.52
7376;BME280;3728;42.266;24.944;2023-04-09T06:05:48;100091.50;;;12.04;80.73
7376;BME280;3728;42.266;24.944;2023-04-09T06:08:18;100095.59;;;12.10;80.67
7376;BME280;3728;42.266;24.944;2023-04-09T06:10:45;100098.50;;;12.44;79.58
7376;BME280;3728;42.266;24.944;2023-04-09T06:13:12;100096.19;;;13.09;74.44
7376;BME280;3728;42.266;24.944;2023-04-09T06:15:40;100102.91;;;12.35;78.81
7376;BME280;3728;42.266;24.944;2023-04-09T06:18:08;100099.63;;;11.94;81.40
7376;BME280;3728;42.266;24.944;2023-04-09T06:20:36;100099.09;;;11.92;82.76
7376;BME280;3728;42.266;24.944;2023-04-09T06:23:08;100095.72;;;11.91;82.79
7376;BME280;3728;42.266;24.944;2023-04-09T06:25:36;100098.78;;;12.20;81.95
7376;BME280;3728;42.266;24.944;2023-04-09T06:28:04;100100.50;;;12.39;79.69
7376;BME280;3728;42.266;24.944;2023-04-09T06:30:33;100096.50;;;12.41;79.65
7376;BME280;3728;42.266;24.944;2023-04-09T06:33:02;100096.06;;;12.48;80.55
7376;BME280;3728;42.266;24.944;2023-04-09T06:35:29;100086.22;;;12.53;82.39
7376;BME280;3728;42.266;24.944;2023-04-09T06:37:56;100091.41;;;12.45;81.27
7376;BME280;3728;42.266;24.944;2023-04-09T06:40:23;100096.97;;;12.43;81.20
7376;BME280;3728;42.266;24.944;2023-04-09T06:42:54;100095.16;;;12.74;78.68
7376;BME280;3728;42.266;24.944;2023-04-09T06:45:28;100090.28;;;12.59;79.13
7376;BME280;3728;42.266;24.944;2023-04-09T06:47:55;100089.56;;;12.89;80.57
7376;BME280;3728;42.266;24.944;2023-04-09T06:50:22;100100.06;;;12.89;77.29
7376;BME280;3728;42.266;24.944;2023-04-09T06:52:50;100093.63;;;13.26;77.58
7376;BME280;3728;42.266;24.944;2023-04-09T06:55:17;100093.50;;;13.31;77.54
7376;BME280;3728;42.266;24.944;2023-04-09T06:57:44;100093.72;;;13.52;78.83
7376;BME280;3728;42.266;24.944;2023-04-09T07:00:13;100095.72;;;13.94;73.88
7376;BME280;3728;42.266;24.944;2023-04-09T07:02:40;100096.38;;;14.08;74.61
7376;BME280;3728;42.266;24.944;2023-04-09T07:05:08;100089.69;;;14.28;72.01
7376;BME280;3728;42.266;24.944;2023-04-09T07:07:35;100093.44;;;14.35;71.45
7376;BME280;3728;42.266;24.944;2023-04-09T07:10:02;100094.38;;;14.22;71.95
7376;BME280;3728;42.266;24.944;2023-04-09T07:12:33;100091.84;;;14.00;73.26
7376;BME280;3728;42.266;24.944;2023-04-09T07:15:04;100090.03;;;13.53;73.69
7376;BME280;3728;42.266;24.944;2023-04-09T07:17:33;100089.72;;;13.54;75.19
7376;BME280;3728;42.266;24.944;2023-04-09T07:20:01;100085.47;;;13.93;73.32
7376;BME280;3728;42.266;24.944;2023-04-09T07:22:29;100095.00;;;14.45;73.17
7376;BME280;3728;42.266;24.944;2023-04-09T07:24:56;100093.25;;;14.92;67.91
7376;BME280;3728;42.266;24.944;2023-04-09T07:27:25;100101.00;;;15.52;61.13
7376;BME280;3728;42.266;24.944;2023-04-09T07:29:54;100097.88;;;15.50;63.64
7376;BME280;3728;42.266;24.944;2023-04-09T07:32:25;100098.63;;;15.59;63.82
7376;BME280;3728;42.266;24.944;2023-04-09T07:34:54;100099.44;;;15.42;61.41
7376;BME280;3728;42.266;24.944;2023-04-09T07:37:21;100097.66;;;15.26;63.30
7376;BME280;3728;42.266;24.944;2023-04-09T07:39:48;100102.41;;;15.49;60.94
7376;BME280;3728;42.266;24.944;2023-04-09T07:42:16;100103.25;;;15.62;57.43
7376;BME280;3728;42.266;24.944;2023-04-09T07:44:43;100092.59;;;15.03;57.54
7376;BME280;3728;42.266;24.944;2023-04-09T07:47:10;100091.66;;;14.91;61.55
7376;BME280;3728;42.266;24.944;2023-04-09T07:49:40;100095.97;;;15.13;59.99
7376;BME280;3728;42.266;24.944;2023-04-09T07:52:10;100098.94;;;15.11;65.25
7376;BME280;3728;42.266;24.944;2023-04-09T07:54:39;100092.03;;;15.27;61.33
7376;BME280;3728;42.266;24.944;2023-04-09T07:57:06;100106.72;;;15.83;61.28
7376;BME280;3728;42.266;24.944;2023-04-09T07:59:34;100093.81;;;16.52;54.59
7376;BME280;3728;42.266;24.944;2023-04-09T08:02:02;100100.84;;;15.78;59.08
7376;BME280;3728;42.266;24.944;2023-04-09T08:04:30;100103.34;;;16.24;54.83
7376;BME280;3728;42.266;24.944;2023-04-09T08:06:57;100093.69;;;15.78;56.13
7376;BME280;3728;42.266;24.944;2023-04-09T08:09:25;100100.53;;;15.41;57.39
7376;BME280;3728;42.266;24.944;2023-04-09T08:11:53;100090.31;;;15.31;58.71
7376;BME280;3728;42.266;24.944;2023-04-09T08:14:20;100096.31;;;15.40;58.91
7376;BME280;3728;42.266;24.944;2023-04-09T08:16:48;100099.25;;;15.56;59.56
7376;BME280;3728;42.266;24.944;2023-04-09T08:19:16;100108.22;;;15.93;57.69
7376;BME280;3728;42.266;24.944;2023-04-09T08:21:44;100107.56;;;16.37;54.13
7376;BME280;3728;42.266;24.944;2023-04-09T08:24:16;100105.06;;;16.40;54.30
7376;BME280;3728;42.266;24.944;2023-04-09T08:26:44;100105.25;;;16.35;53.77
7376;BME280;3728;42.266;24.944;2023-04-09T08:29:11;100104.81;;;16.54;54.68
7376;BME280;3728;42.266;24.944;2023-04-09T08:31:41;100101.16;;;16.67;54.56
7376;BME280;3728;42.266;24.944;2023-04-09T08:34:08;100112.47;;;16.88;51.66
7376;BME280;3728;42.266;24.944;2023-04-09T08:36:35;100106.16;;;16.81;53.40
7376;BME280;3728;42.266;24.944;2023-04-09T08:39:02;100109.09;;;17.12;52.24
7376;BME280;3728;42.266;24.944;2023-04-09T08:41:31;100102.00;;;16.59;53.26
7376;BME280;3728;42.266;24.944;2023-04-09T08:43:58;100101.66;;;16.40;51.31
7376;BME280;3728;42.266;24.944;2023-04-09T08:46:26;100092.69;;;16.12;53.77
7376;BME280;3728;42.266;24.944;2023-04-09T08:48:54;100095.75;;;16.22;56.77
7376;BME280;3728;42.266;24.944;2023-04-09T08:51:22;100097.00;;;16.78;55.10
7376;BME280;3728;42.266;24.944;2023-04-09T08:54:00;100088.41;;;16.93;51.84
7376;BME280;3728;42.266;24.944;2023-04-09T08:56:30;100089.75;;;16.99;52.38
7376;BME280;3728;42.266;24.944;2023-04-09T08:58:59;100092.00;;;16.65;54.57
7376;BME280;3728;42.266;24.944;2023-04-09T09:01:30;100090.47;;;16.22;56.23
7376;BME280;3728;42.266;24.944;2023-04-09T09:06:37;100084.50;;;16.46;56.13
7376;BME280;3728;42.266;24.944;2023-04-09T09:09:12;100092.50;;;16.91;52.23
7376;BME280;3728;42.266;24.944;2023-04-09T09:11:48;100088.81;;;16.71;54.99
7376;BME280;3728;42.266;24.944;2023-04-09T09:14:18;100088.25;;;17.23;51.05
7376;BME280;3728;42.266;24.944;2023-04-09T09:21:58;100085.25;;;17.24;51.25
7376;BME280;3728;42.266;24.944;2023-04-09T09:24:27;100084.75;;;17.55;53.09
7376;BME280;3728;42.266;24.944;2023-04-09T09:26:54;100087.41;;;17.79;53.97
7376;BME280;3728;42.266;24.944;2023-04-09T09:29:24;100087.56;;;18.50;49.83
7376;BME280;3728;42.266;24.944;2023-04-09T09:31:53;100085.41;;;18.28;49.47
7376;BME280;3728;42.266;24.944;2023-04-09T09:34:22;100076.28;;;18.13;47.36
7376;BME280;3728;42.266;24.944;2023-04-09T09:36:49;100070.41;;;17.68;50.25
7376;BME280;3728;42.266;24.944;2023-04-09T09:39:16;100071.19;;;17.68;50.39
7376;BME280;3728;42.266;24.944;2023-04-09T09:41:44;100063.53;;;17.91;48.73
7376;BME280;3728;42.266;24.944;2023-04-09T09:44:30;100060.22;;;17.94;52.42
7376;BME280;3728;42.266;24.944;2023-04-09T09:46:58;100053.66;;;18.16;52.32
7376;BME280;3728;42.266;24.944;2023-04-09T09:49:25;100052.25;;;18.34;50.45
7376;BME280;3728;42.266;24.944;2023-04-09T09:51:57;100045.56;;;18.68;49.58
7376;BME280;3728;42.266;24.944;2023-04-09T09:54:38;100043.72;;;18.99;48.88
7376;BME280;3728;42.266;24.944;2023-04-09T09:57:10;100041.47;;;19.48;46.39
7376;BME280;3728;42.266;24.944;2023-04-09T09:59:43;100044.75;;;19.10;45.40
7376;BME280;3728;42.266;24.944;2023-04-09T10:02:22;100049.56;;;18.46;47.83
7376;BME280;3728;42.266;24.944;2023-04-09T10:04:59;100040.59;;;18.51;47.74
7376;BME280;3728;42.266;24.944;2023-04-09T10:07:27;100044.31;;;18.77;45.74
7376;BME280;3728;42.266;24.944;2023-04-09T10:09:55;100032.66;;;18.38;46.65
7376;BME280;3728;42.266;24.944;2023-04-09T10:12:24;100031.22;;;18.13;48.28
7376;BME280;3728;42.266;24.944;2023-04-09T10:14:53;100033.50;;;18.27;47.86
7376;BME280;3728;42.266;24.944;2023-04-09T10:17:23;100024.31;;;17.97;43.13
7376;BME280;3728;42.266;24.944;2023-04-09T10:20:26;100027.56;;;18.18;44.36
7376;BME280;3728;42.266;24.944;2023-04-09T10:23:08;100023.44;;;18.76;44.52
7376;BME280;3728;42.266;24.944;2023-04-09T10:25:42;100028.06;;;19.10;44.28
7376;BME280;3728;42.266;24.944;2023-04-09T10:28:17;100028.22;;;19.33;43.44
7376;BME280;3728;42.266;24.944;2023-04-09T10:30:48;100016.41;;;18.99;45.03
7376;BME280;3728;42.266;24.944;2023-04-09T10:33:21;100019.06;;;18.83;45.98
7376;BME280;3728;42.266;24.944;2023-04-09T10:36:02;100004.75;;;19.19;47.99
7376;BME280;3728;42.266;24.944;2023-04-09T10:38:44;100007.38;;;19.50;44.74
7376;BME280;3728;42.266;24.944;2023-04-09T10:41:22;100004.06;;;19.72;44.81
7376;BME280;3728;42.266;24.944;2023-04-09T10:43:53;99995.47;;;19.98;44.29
7376;BME280;3728;42.266;24.944;2023-04-09T10:46:51;99996.16;;;19.57;44.15
7376;BME280;3728;42.266;24.944;2023-04-09T10:49:21;99994.41;;;19.84;47.12
7376;BME280;3728;42.266;24.944;2023-04-09T10:51:50;99988.28;;;20.21;41.40
7376;BME280;3728;42.266;24.944;2023-04-09T10:59:52;99982.97;;;20.21;41.74
7376;BME280;3728;42.266;24.944;2023-04-09T11:07:57;99967.66;;;20.57;40.82
7376;BME280;3728;42.266;24.944;2023-04-09T11:10:31;99969.19;;;21.03;38.73
7376;BME280;3728;42.266;24.944;2023-04-09T11:12:59;99963.78;;;20.99;39.19
7376;BME280;3728;42.266;24.944;2023-04-09T11:15:26;99960.47;;;20.57;39.09
7376;BME280;3728;42.266;24.944;2023-04-09T11:17:54;99963.38;;;19.88;40.16
7376;BME280;3728;42.266;24.944;2023-04-09T11:20:23;99958.44;;;20.09;41.12
7376;BME280;3728;42.266;24.944;2023-04-09T11:22:52;99956.72;;;20.39;39.98
7376;BME280;3728;42.266;24.944;2023-04-09T11:25:25;99956.38;;;20.21;39.73
7376;BME280;3728;42.266;24.944;2023-04-09T11:27:54;99950.34;;;19.63;40.70
7376;BME280;3728;42.266;24.944;2023-04-09T11:30:21;99942.22;;;19.56;42.25
7376;BME280;3728;42.266;24.944;2023-04-09T11:32:49;99943.75;;;19.96;40.48
7376;BME280;3728;42.266;24.944;2023-04-09T11:35:18;99938.41;;;20.15;40.07
7376;BME280;3728;42.266;24.944;2023-04-09T11:37:47;99937.38;;;20.00;41.51
7376;BME280;3728;42.266;24.944;2023-04-09T11:40:18;99928.19;;;20.17;41.24
7376;BME280;3728;42.266;24.944;2023-04-09T11:42:51;99922.56;;;19.99;41.02
7376;BME280;3728;42.266;24.944;2023-04-09T11:45:22;99926.81;;;20.04;41.18
7376;BME280;3728;42.266;24.944;2023-04-09T11:47:53;99932.13;;;20.23;39.94
7376;BME280;3728;42.266;24.944;2023-04-09T11:50:22;99928.88;;;20.14;40.99
7376;BME280;3728;42.266;24.944;2023-04-09T11:52:49;99916.06;;;20.38;39.41
7376;BME280;3728;42.266;24.944;2023-04-09T11:55:27;99913.38;;;20.16;40.91
7376;BME280;3728;42.266;24.944;2023-04-09T11:57:58;99911.97;;;20.44;41.21
7376;BME280;3728;42.266;24.944;2023-04-09T12:00:27;99897.91;;;20.44;40.12
7376;BME280;3728;42.266;24.944;2023-04-09T12:03:01;99899.31;;;20.61;36.51
7376;BME280;3728;42.266;24.944;2023-04-09T12:05:31;99891.78;;;20.66;37.40
7376;BME280;3728;42.266;24.944;2023-04-09T12:08:06;99887.91;;;20.60;36.88
7376;BME280;3728;42.266;24.944;2023-04-09T12:10:35;99885.09;;;20.27;37.39
7376;BME280;3728;42.266;24.944;2023-04-09T12:13:08;99884.41;;;20.11;36.54
7376;BME280;3728;42.266;24.944;2023-04-09T12:15:40;99884.09;;;19.74;37.10
7376;BME280;3728;42.266;24.944;2023-04-09T12:18:12;99875.03;;;19.37;37.99
7376;BME280;3728;42.266;24.944;2023-04-09T12:20:41;99868.22;;;19.77;35.44
7376;BME280;3728;42.266;24.944;2023-04-09T12:23:10;99859.44;;;19.96;36.70
7376;BME280;3728;42.266;24.944;2023-04-09T12:25:42;99870.25;;;19.84;36.08
7376;BME280;3728;42.266;24.944;2023-04-09T12:28:12;99873.81;;;19.92;34.94
7376;BME280;3728;42.266;24.944;2023-04-09T12:30:41;99866.75;;;19.80;36.22
7376;BME280;3728;42.266;24.944;2023-04-09T12:33:10;99861.28;;;19.92;35.42
7376;BME280;3728;42.266;24.944;2023-04-09T12:35:37;99862.22;;;20.03;38.04
7376;BME280;3728;42.266;24.944;2023-04-09T12:38:05;99858.69;;;20.18;36.24
7376;BME280;3728;42.266;24.944;2023-04-09T12:40:32;99860.66;;;20.44;34.99
7376;BME280;3728;42.266;24.944;2023-04-09T12:43:02;99858.25;;;20.62;36.12
7376;BME280;3728;42.266;24.944;2023-04-09T12:45:30;99867.59;;;20.75;34.03
7376;BME280;3728;42.266;24.944;2023-04-09T12:47:57;99859.28;;;20.80;36.21
7376;BME280;3728;42.266;24.944;2023-04-09T12:50:24;99859.13;;;21.22;34.68
7376;BME280;3728;42.266;24.944;2023-04-09T12:52:51;99857.09;;;21.45;33.70
7376;BME280;3728;42.266;24.944;2023-04-09T12:55:18;99856.34;;;21.81;34.40
7376;BME280;3728;42.266;24.944;2023-04-09T12:57:49;99848.34;;;21.81;32.51
7376;BME280;3728;42.266;24.944;2023-04-09T13:00:16;99842.38;;;21.91;33.93
7376;BME280;3728;42.266;24.944;2023-04-09T13:02:44;99837.09;;;21.98;34.98
7376;BME280;3728;42.266;24.944;2023-04-09T13:05:12;99837.38;;;21.86;34.58
7376;BME280;3728;42.266;24.944;2023-04-09T13:07:42;99831.16;;;21.75;34.58
7376;BME280;3728;42.266;24.944;2023-04-09T13:10:09;99819.56;;;21.60;33.28
7376;BME280;3728;42.266;24.944;2023-04-09T13:12:36;99819.38;;;21.09;35.58
7376;BME280;3728;42.266;24.944;2023-04-09T13:15:04;99820.19;;;20.84;37.37
7376;BME280;3728;42.266;24.944;2023-04-09T13:17:31;99821.28;;;21.09;36.21
7376;BME280;3728;42.266;24.944;2023-04-09T13:19:58;99811.81;;;21.15;35.00
7376;BME280;3728;42.266;24.944;2023-04-09T13:22:25;99823.56;;;21.10;34.57
7376;BME280;3728;42.266;24.944;2023-04-09T13:24:52;99816.09;;;21.20;36.57
7376;BME280;3728;42.266;24.944;2023-04-09T13:27:19;99812.50;;;21.38;34.48
7376;BME280;3728;42.266;24.944;2023-04-09T13:29:46;99815.47;;;21.70;35.00
7376;BME280;3728;42.266;24.944;2023-04-09T13:32:13;99811.00;;;21.77;36.11
7376;BME280;3728;42.266;24.944;2023-04-09T13:34:41;99801.47;;;21.40;36.20
7376;BME280;3728;42.266;24.944;2023-04-09T13:37:10;99799.19;;;21.38;35.25
7376;BME280;3728;42.266;24.944;2023-04-09T13:39:37;99797.69;;;21.41;36.63
7376;BME280;3728;42.266;24.944;2023-04-09T13:42:04;99794.81;;;21.60;36.30
7376;BME280;3728;42.266;24.944;2023-04-09T13:44:39;99787.09;;;21.88;35.36
7376;BME280;3728;42.266;24.944;2023-04-09T13:47:08;99792.69;;;21.76;35.42